createdAt,value
2022-10-15T00:01:14.051Z,11.92
2022-10-15T00:03:43.254Z,11.97
2022-10-15T00:06:17.027Z,11.70
2022-10-15T00:08:45.104Z,11.88
2022-10-15T00:11:18.927Z,11.83
2022-10-15T00:13:46.373Z,11.77
2022-10-15T00:16:16.883Z,11.76
2022-10-15T00:18:44.112Z,11.76
2022-10-15T00:21:13.250Z,11.70
2022-10-15T00:23:40.443Z,11.71
2022-10-15T00:26:22.368Z,11.65
2022-10-15T00:28:52.039Z,11.49
2022-10-15T00:31:24.951Z,11.58
2022-10-15T00:33:53.218Z,11.46
2022-10-15T00:36:23.496Z,11.50
2022-10-15T00:38:51.569Z,11.51
2022-10-15T00:41:24.828Z,11.25
2022-10-15T00:43:53.495Z,11.40
2022-10-15T00:46:31.093Z,10.78
2022-10-15T00:49:24.650Z,11.34
2022-10-15T00:52:03.932Z,11.30
2022-10-15T00:54:35.086Z,11.20
2022-10-15T00:57:02.193Z,11.20
2022-10-15T00:59:31.776Z,11.22
2022-10-15T01:02:00.993Z,11.22
2022-10-15T01:04:29.567Z,11.17
2022-10-15T01:06:56.724Z,10.91
2022-10-15T01:09:24.206Z,11.01
2022-10-15T01:11:54.818Z,11.12
2022-10-15T01:14:53.380Z,10.95
2022-10-15T01:17:28.224Z,10.96
2022-10-15T01:19:58.177Z,10.95
2022-10-15T01:22:34.104Z,10.94
2022-10-15T01:25:15.470Z,10.91
2022-10-15T01:27:46.324Z,10.90
2022-10-15T01:30:24.538Z,10.90
2022-10-15T01:33:10.707Z,10.89
2022-10-15T01:36:05.562Z,10.85
2022-10-15T01:38:44.015Z,10.82
2022-10-15T01:41:36.559Z,10.40
2022-10-15T01:44:34.417Z,10.76
2022-10-15T01:47:28.093Z,10.72
2022-10-15T01:49:56.687Z,10.72
2022-10-15T01:52:28.095Z,10.68
2022-10-15T01:54:56.333Z,10.69
2022-10-15T01:57:26.486Z,10.57
2022-10-15T01:59:54.542Z,10.60
2022-10-15T02:02:24.220Z,10.73
2022-10-15T02:04:51.693Z,10.75
2022-10-15T02:07:38.305Z,10.75
2022-10-15T02:10:08.277Z,10.75
2022-10-15T02:13:13.112Z,10.77
2022-10-15T02:15:56.682Z,10.70
2022-10-15T02:18:44.937Z,10.68
2022-10-15T02:21:27.374Z,10.53
2022-10-15T02:24:06.711Z,10.64
2022-10-15T02:26:35.383Z,10.42
2022-10-15T02:29:06.255Z,10.64
2022-10-15T02:31:35.628Z,10.65
2022-10-15T02:34:06.525Z,10.64
2022-10-15T02:36:34.403Z,10.52
2022-10-15T02:39:07.366Z,10.61
2022-10-15T02:41:36.132Z,10.65
2022-10-15T02:44:04.317Z,10.45
2022-10-15T02:46:31.853Z,10.48
2022-10-15T02:48:59.568Z,10.71
2022-10-15T02:51:26.933Z,10.61
2022-10-15T02:53:54.105Z,10.54
2022-10-15T02:56:21.294Z,10.63
2022-10-15T02:58:48.824Z,10.52
2022-10-15T03:01:16.130Z,10.72
2022-10-15T03:03:43.416Z,10.69
2022-10-15T03:06:10.843Z,10.40
2022-10-15T03:08:38.107Z,10.46
2022-10-15T03:11:06.048Z,10.72
2022-10-15T03:13:36.688Z,10.46
2022-10-15T03:16:11.236Z,10.72
2022-10-15T03:18:41.100Z,10.55
2022-10-15T03:21:10.282Z,10.72
2022-10-15T03:23:38.598Z,10.75
2022-10-15T03:26:10.760Z,10.45
2022-10-15T03:28:38.576Z,10.65
2022-10-15T03:31:06.833Z,10.67
2022-10-15T03:33:34.111Z,10.67
2022-10-15T03:36:02.174Z,10.68
2022-10-15T03:38:29.579Z,10.69
2022-10-15T03:40:58.053Z,10.68
2022-10-15T03:43:38.936Z,10.58
2022-10-15T03:46:09.653Z,10.60
2022-10-15T03:48:41.145Z,10.58
2022-10-15T03:51:10.364Z,10.47
2022-10-15T03:53:38.412Z,10.53
2022-10-15T03:56:07.433Z,10.55
2022-10-15T03:58:38.332Z,10.53
2022-10-15T04:01:11.277Z,10.52
2022-10-15T04:03:39.135Z,10.51
2022-10-15T04:06:06.631Z,10.48
2022-10-15T04:08:35.202Z,10.47
2022-10-15T04:11:13.464Z,10.41
2022-10-15T04:13:40.772Z,10.43
2022-10-15T04:16:08.503Z,10.25
2022-10-15T04:18:35.824Z,10.35
2022-10-15T04:21:03.146Z,10.18
2022-10-15T04:23:33.405Z,9.69
2022-10-15T04:26:29.781Z,10.19
2022-10-15T04:29:00.291Z,9.79
2022-10-15T04:31:28.503Z,10.19
2022-10-15T04:33:57.463Z,10.27
2022-10-15T04:36:24.871Z,10.24
2022-10-15T04:39:00.048Z,9.99
2022-10-15T04:41:34.843Z,10.14
2022-10-15T04:44:08.882Z,10.21
2022-10-15T04:46:37.673Z,9.99
2022-10-15T04:49:21.097Z,9.87
2022-10-15T04:51:48.313Z,10.19
2022-10-15T04:54:21.387Z,10.19
2022-10-15T04:57:00.194Z,10.12
2022-10-15T04:59:27.860Z,10.21
2022-10-15T05:02:24.392Z,10.24
2022-10-15T05:04:56.805Z,9.92
2022-10-15T05:07:24.852Z,10.03
2022-10-15T05:09:53.924Z,10.30
2022-10-15T05:12:21.433Z,10.32
2022-10-15T05:14:48.638Z,10.34
2022-10-15T05:17:22.074Z,10.32
2022-10-15T05:19:49.654Z,10.28
2022-10-15T05:22:21.244Z,9.65
2022-10-15T05:24:55.094Z,10.29
2022-10-15T05:27:28.101Z,10.20
2022-10-15T05:29:55.403Z,10.34
2022-10-15T05:32:27.660Z,10.33
2022-10-15T05:34:54.976Z,10.40
2022-10-15T05:37:23.001Z,10.44
2022-10-15T05:39:50.376Z,10.39
2022-10-15T05:42:17.637Z,10.43
2022-10-15T05:44:52.371Z,10.49
2022-10-15T05:47:21.156Z,10.51
2022-10-15T05:49:48.743Z,10.54
2022-10-15T05:52:23.557Z,10.42
2022-10-15T05:55:09.560Z,10.39
2022-10-15T05:57:37.008Z,10.54
2022-10-15T06:00:06.600Z,10.69
2022-10-15T06:02:39.035Z,10.73
2022-10-15T06:05:06.920Z,10.79
2022-10-15T06:07:34.348Z,10.77
2022-10-15T06:10:05.753Z,10.72
2022-10-15T06:12:34.643Z,10.71
2022-10-15T06:15:02.006Z,10.84
2022-10-15T06:17:29.147Z,10.67
2022-10-15T06:19:56.195Z,10.26
2022-10-15T06:22:23.489Z,10.93
2022-10-15T06:24:50.844Z,10.86
2022-10-15T06:27:17.938Z,11.01
2022-10-15T06:29:45.117Z,10.45
2022-10-15T06:32:12.710Z,11.02
2022-10-15T06:34:43.875Z,11.06
2022-10-15T06:37:11.163Z,10.94
2022-10-15T06:39:38.433Z,10.80
2022-10-15T06:42:05.574Z,10.95
2022-10-15T06:44:42.245Z,10.47
2022-10-15T06:47:10.351Z,10.99
2022-10-15T06:49:37.593Z,11.11
2022-10-15T06:52:04.906Z,11.06
2022-10-15T06:54:32.167Z,11.08
2022-10-15T06:56:59.258Z,11.10
2022-10-15T06:59:26.445Z,11.03
2022-10-15T07:01:54.848Z,10.74
2022-10-15T07:04:24.513Z,11.23
2022-10-15T07:06:51.949Z,11.21
2022-10-15T07:09:20.738Z,11.25
2022-10-15T07:11:47.882Z,11.27
2022-10-15T07:14:14.944Z,11.36
2022-10-15T07:16:42.312Z,11.36
2022-10-15T07:19:09.399Z,11.37
2022-10-15T07:21:36.896Z,11.42
2022-10-15T07:24:04.414Z,11.19
2022-10-15T07:26:31.868Z,11.53
2022-10-15T07:29:03.802Z,11.58
2022-10-15T07:31:31.375Z,11.48
2022-10-15T07:33:58.827Z,11.38
2022-10-15T07:36:26.887Z,11.66
2022-10-15T07:38:54.015Z,11.36
2022-10-15T07:41:22.163Z,11.66
2022-10-15T07:43:52.458Z,11.74
2022-10-15T07:46:19.643Z,11.77
2022-10-15T07:48:48.487Z,11.81
2022-10-15T07:51:15.675Z,11.77
2022-10-15T07:53:44.362Z,11.89
2022-10-15T07:56:12.705Z,11.82
2022-10-15T07:58:40.613Z,11.98
2022-10-15T08:01:10.146Z,11.67
2022-10-15T08:03:38.497Z,11.94
2022-10-15T08:06:07.658Z,12.12
2022-10-15T08:08:35.786Z,12.20
2022-10-15T08:11:08.384Z,12.24
2022-10-15T08:13:35.587Z,12.30
2022-10-15T08:16:03.215Z,12.30
2022-10-15T08:18:30.269Z,12.38
2022-10-15T08:21:00.794Z,12.42
2022-10-15T08:23:28.669Z,12.51
2022-10-15T08:25:58.578Z,12.57
2022-10-15T08:28:26.393Z,12.57
2022-10-15T08:30:53.873Z,12.70
2022-10-15T08:33:21.119Z,12.76
2022-10-15T08:35:48.384Z,12.83
2022-10-15T08:38:19.018Z,12.82
2022-10-15T08:40:55.735Z,12.80
2022-10-15T08:43:40.787Z,12.94
2022-10-15T08:46:21.115Z,12.95
2022-10-15T08:48:53.688Z,13.07
2022-10-15T08:51:24.476Z,13.13
2022-10-15T08:53:58.543Z,13.13
2022-10-15T08:56:34.263Z,13.12
2022-10-15T08:59:13.967Z,13.11
2022-10-15T09:01:59.259Z,13.09
2022-10-15T09:04:47.575Z,13.13
2022-10-15T09:07:33.563Z,13.15
2022-10-15T09:10:52.221Z,13.21
2022-10-15T09:13:32.079Z,13.21
2022-10-15T09:16:05.653Z,13.27
2022-10-15T09:18:36.584Z,13.35
2022-10-15T09:21:06.005Z,13.38
2022-10-15T09:23:34.869Z,13.40
2022-10-15T09:26:02.257Z,13.44
2022-10-15T09:28:39.886Z,13.30
2022-10-15T09:31:10.535Z,13.47
2022-10-15T09:33:47.102Z,13.56
2022-10-15T09:36:34.418Z,13.59
2022-10-15T09:39:23.192Z,13.59
2022-10-15T09:41:54.186Z,13.61
2022-10-15T09:44:24.863Z,13.47
2022-10-15T09:46:52.443Z,13.68
2022-10-15T09:49:31.261Z,13.62
2022-10-15T09:52:11.942Z,13.82
2022-10-15T09:55:30.013Z,13.88
2022-10-15T09:58:02.325Z,14.07
2022-10-15T10:00:59.907Z,14.18
2022-10-15T10:03:36.605Z,14.26
2022-10-15T10:06:14.760Z,14.31
2022-10-15T10:08:52.544Z,14.31
2022-10-15T10:11:21.188Z,14.08
2022-10-15T10:13:48.475Z,14.42
2022-10-15T10:16:18.559Z,14.52
2022-10-15T10:19:07.030Z,14.56
2022-10-15T10:21:37.658Z,14.58
2022-10-15T10:24:30.410Z,14.69
2022-10-15T10:27:02.713Z,14.76
2022-10-15T10:29:34.801Z,14.65
2022-10-15T10:32:19.487Z,14.67
2022-10-15T10:34:52.283Z,14.76
2022-10-15T10:37:21.170Z,14.77
2022-10-15T10:39:57.690Z,14.71
2022-10-15T10:42:24.981Z,14.69
2022-10-15T10:44:53.919Z,14.52
2022-10-15T10:47:22.322Z,14.63
2022-10-15T10:49:58.471Z,14.59
2022-10-15T10:52:27.136Z,14.61
2022-10-15T10:55:01.690Z,14.65
2022-10-15T10:57:40.759Z,14.56
2022-10-15T11:00:12.334Z,14.70
2022-10-15T11:02:44.093Z,14.72
2022-10-15T11:05:13.295Z,14.49
2022-10-15T11:08:14.506Z,14.69
2022-10-15T11:10:58.927Z,14.46
2022-10-15T11:13:41.235Z,14.72
2022-10-15T11:16:15.335Z,14.59
2022-10-15T11:19:19.856Z,14.83
2022-10-15T11:21:56.290Z,14.89
2022-10-15T11:24:33.523Z,14.94
2022-10-15T11:27:27.595Z,15.00
2022-10-15T11:30:29.773Z,15.01
2022-10-15T11:33:25.266Z,15.02
2022-10-15T11:36:11.224Z,15.05
2022-10-15T11:38:46.448Z,14.98
2022-10-15T11:41:28.639Z,15.10
2022-10-15T11:44:39.310Z,15.14
2022-10-15T11:47:47.639Z,15.09
2022-10-15T11:50:41.574Z,15.24
2022-10-15T11:53:33.662Z,15.25
2022-10-15T11:56:21.116Z,15.28
2022-10-15T11:59:00.905Z,15.21
2022-10-15T12:01:38.493Z,15.24
2022-10-15T12:04:32.700Z,15.24
2022-10-15T12:07:05.289Z,15.21
2022-10-15T12:09:37.726Z,15.19
2022-10-15T12:12:12.534Z,15.25
2022-10-15T12:14:39.673Z,15.28
2022-10-15T12:17:17.642Z,15.22
2022-10-15T12:19:59.520Z,15.40
2022-10-15T12:22:40.567Z,15.32
2022-10-15T12:25:46.815Z,15.47
2022-10-15T12:28:20.982Z,15.39
2022-10-15T12:31:03.297Z,15.51
2022-10-15T12:33:45.533Z,15.60
2022-10-15T12:36:30.522Z,15.68
2022-10-15T12:39:16.215Z,15.74
2022-10-15T12:41:55.286Z,15.69
2022-10-15T12:44:33.856Z,15.80
2022-10-15T12:47:01.219Z,15.77
2022-10-15T12:49:30.582Z,15.89
2022-10-15T12:51:59.644Z,15.86
2022-10-15T12:54:34.495Z,15.97
2022-10-15T12:57:05.258Z,16.01
2022-10-15T12:59:44.784Z,16.00
2022-10-15T13:02:34.148Z,15.98
2022-10-15T13:05:01.668Z,15.96
2022-10-15T13:07:28.988Z,15.71
2022-10-15T13:09:56.566Z,15.48
2022-10-15T13:12:29.029Z,15.85
2022-10-15T13:15:04.053Z,15.81
2022-10-15T13:17:34.148Z,15.67
2022-10-15T13:20:08.204Z,15.73
2022-10-15T13:22:37.467Z,15.52
2022-10-15T13:25:05.187Z,15.68
2022-10-15T13:27:38.024Z,15.66
2022-10-15T13:30:14.486Z,15.61
2022-10-15T13:32:53.053Z,15.46
2022-10-15T13:35:26.407Z,15.55
2022-10-15T13:37:53.665Z,15.49
2022-10-15T13:40:29.680Z,15.40
2022-10-15T13:43:17.048Z,15.51
2022-10-15T13:45:55.258Z,15.50
2022-10-15T13:48:25.311Z,15.31
2022-10-15T13:51:04.988Z,15.49
2022-10-15T13:53:37.956Z,15.48
2022-10-15T13:56:36.291Z,15.22
2022-10-15T13:59:04.283Z,15.47
2022-10-15T14:01:34.699Z,15.46
2022-10-15T14:04:04.212Z,15.26
2022-10-15T14:06:34.756Z,15.41
2022-10-15T14:09:28.978Z,15.43
2022-10-15T14:12:00.669Z,15.39
2022-10-15T14:14:42.205Z,15.38
2022-10-15T14:17:17.595Z,15.39
2022-10-15T14:20:08.254Z,15.30
2022-10-15T14:22:41.394Z,15.12
2022-10-15T14:27:46.614Z,15.19
2022-10-15T14:30:21.086Z,15.37
2022-10-15T14:32:54.313Z,15.37
2022-10-15T14:35:31.242Z,15.35
2022-10-15T14:38:04.033Z,15.31
2022-10-15T14:40:31.543Z,14.84
2022-10-15T14:43:17.101Z,15.21
2022-10-15T14:45:58.602Z,15.02
2022-10-15T14:48:36.486Z,15.20
2022-10-15T14:51:06.748Z,14.97
2022-10-15T14:53:37.474Z,15.19
2022-10-15T14:56:14.389Z,15.19
2022-10-15T14:58:52.197Z,15.17
2022-10-15T15:01:21.008Z,15.15
2022-10-15T15:03:51.132Z,15.17
2022-10-15T15:06:18.926Z,15.13
2022-10-15T15:08:46.873Z,15.14
2022-10-15T15:11:18.386Z,15.14
2022-10-15T15:13:46.582Z,15.09
2022-10-15T15:16:15.251Z,15.09
2022-10-15T15:18:44.202Z,15.11
2022-10-15T15:21:15.449Z,15.10
2022-10-15T15:23:43.535Z,14.89
2022-10-15T15:26:10.807Z,15.06
2022-10-15T15:28:38.319Z,15.05
2022-10-15T15:31:08.642Z,15.01
2022-10-15T15:33:35.707Z,14.94
2022-10-15T15:36:07.938Z,14.83
2022-10-15T15:41:14.795Z,14.89
2022-10-15T15:43:43.054Z,14.88
2022-10-15T15:46:10.861Z,14.76
2022-10-15T15:48:38.629Z,14.87
2022-10-15T15:51:10.353Z,14.85
2022-10-15T15:53:37.431Z,14.82
2022-10-15T15:56:04.854Z,14.67
2022-10-15T15:58:32.163Z,14.77
2022-10-15T16:00:59.643Z,14.70
2022-10-15T16:03:27.116Z,14.71
2022-10-15T16:05:54.576Z,14.48
2022-10-15T16:08:21.967Z,14.66
2022-10-15T16:10:49.262Z,14.65
2022-10-15T16:13:16.546Z,14.61
2022-10-15T16:15:43.672Z,14.58
2022-10-15T16:18:12.360Z,14.49
2022-10-15T16:20:46.375Z,14.48
2022-10-15T16:23:16.371Z,14.52
2022-10-15T16:25:43.704Z,14.51
2022-10-15T16:28:11.014Z,14.51
2022-10-15T16:30:38.117Z,14.08
2022-10-15T16:35:34.327Z,14.24
2022-10-15T16:38:01.585Z,14.46
2022-10-15T16:40:28.763Z,14.47
2022-10-15T16:42:55.904Z,14.45
2022-10-15T16:45:23.107Z,14.48
2022-10-15T16:47:50.331Z,14.47
2022-10-15T16:50:17.612Z,13.85
2022-10-15T16:52:44.834Z,14.47
2022-10-15T16:55:12.367Z,14.39
2022-10-15T16:57:39.724Z,14.47
2022-10-15T17:00:07.404Z,14.41
2022-10-15T17:02:34.526Z,14.47
2022-10-15T17:05:01.776Z,14.38
2022-10-15T17:07:28.897Z,13.90
2022-10-15T17:09:56.923Z,14.46
2022-10-15T17:12:24.355Z,14.37
2022-10-15T17:14:52.235Z,14.25
2022-10-15T17:17:20.058Z,14.45
2022-10-15T17:19:47.553Z,14.45
2022-10-15T17:22:14.713Z,14.33
2022-10-15T17:24:41.884Z,14.44
2022-10-15T17:27:09.033Z,14.44
2022-10-15T17:29:36.309Z,14.16
2022-10-15T17:32:04.327Z,14.43
2022-10-15T17:34:31.594Z,14.43
2022-10-15T17:36:58.694Z,14.42
2022-10-15T17:39:25.868Z,14.14
2022-10-15T17:41:53.023Z,14.28
2022-10-15T17:44:20.678Z,14.37
2022-10-15T17:49:18.955Z,14.28
2022-10-15T17:51:46.701Z,14.34
2022-10-15T17:54:14.326Z,14.19
2022-10-15T17:56:41.633Z,14.33
2022-10-15T17:59:11.864Z,14.29
2022-10-15T18:04:31.039Z,14.21
2022-10-15T18:06:58.403Z,14.32
2022-10-15T18:09:27.440Z,14.28
2022-10-15T18:12:01.288Z,14.28
2022-10-15T18:14:30.876Z,14.14
2022-10-15T18:16:58.075Z,14.30
2022-10-15T18:19:26.959Z,14.29
2022-10-15T18:21:54.454Z,14.33
2022-10-15T18:24:23.622Z,14.08
2022-10-15T18:26:51.545Z,14.33
2022-10-15T18:29:19.164Z,14.36
2022-10-15T18:31:47.410Z,14.35
2022-10-15T18:34:14.634Z,14.36
2022-10-15T18:36:43.846Z,14.37
2022-10-15T18:39:11.405Z,14.09
2022-10-15T18:41:40.349Z,14.16
2022-10-15T18:44:14.945Z,14.36
2022-10-15T18:46:45.195Z,14.38
2022-10-15T18:49:13.097Z,14.37
2022-10-15T18:51:40.407Z,14.36
2022-10-15T18:54:08.857Z,14.23
2022-10-15T18:56:36.230Z,13.95
2022-10-15T18:59:03.516Z,14.34
2022-10-15T19:01:39.298Z,14.33
2022-10-15T19:04:10.433Z,14.35
2022-10-15T19:06:41.276Z,14.37
2022-10-15T19:09:12.334Z,14.38
2022-10-15T19:11:41.373Z,14.37
2022-10-15T19:14:09.012Z,14.38
2022-10-15T19:16:36.777Z,14.34
2022-10-15T19:19:08.875Z,14.40
2022-10-15T19:21:37.730Z,14.36
2022-10-15T19:24:05.818Z,14.41
2022-10-15T19:26:33.123Z,14.21
2022-10-15T19:29:02.379Z,14.43
2022-10-15T19:31:33.733Z,14.41
2022-10-15T19:34:01.088Z,14.44
2022-10-15T19:36:35.219Z,14.45
2022-10-15T19:39:12.092Z,14.48
2022-10-15T19:41:41.377Z,14.45
2022-10-15T19:44:09.516Z,14.26
2022-10-15T19:46:37.731Z,14.50
2022-10-15T19:49:07.915Z,14.50
2022-10-15T19:51:35.303Z,14.48
2022-10-15T19:54:02.567Z,14.50
2022-10-15T19:56:32.243Z,14.51
2022-10-15T19:59:07.073Z,14.50
2022-10-15T20:01:34.574Z,14.42
2022-10-15T20:04:05.918Z,14.39
2022-10-15T20:06:35.705Z,14.46
2022-10-15T20:09:03.713Z,14.50
2022-10-15T20:11:31.209Z,14.47
2022-10-15T20:14:01.914Z,14.51
2022-10-15T20:16:32.826Z,14.29
2022-10-15T20:19:03.094Z,14.46
2022-10-15T20:21:32.313Z,14.51
2022-10-15T20:23:59.956Z,14.51
2022-10-15T20:26:27.167Z,14.51
2022-10-15T20:28:54.511Z,14.41
2022-10-15T20:31:21.935Z,14.44
2022-10-15T20:33:49.685Z,14.53
2022-10-15T20:36:23.541Z,14.54
2022-10-15T20:38:51.724Z,14.53
2022-10-15T20:41:19.157Z,14.54
2022-10-15T20:43:54.639Z,14.50
2022-10-15T20:46:33.058Z,14.54
2022-10-15T20:49:09.517Z,14.43
2022-10-15T20:51:40.073Z,14.53
2022-10-15T20:54:07.273Z,14.49
2022-10-15T20:56:34.713Z,14.44
2022-10-15T20:59:02.134Z,14.30
2022-10-15T21:01:29.365Z,14.50
2022-10-15T21:03:56.718Z,14.47
2022-10-15T21:06:24.000Z,14.50
2022-10-15T21:08:51.186Z,14.43
2022-10-15T21:11:18.735Z,14.38
2022-10-15T21:13:45.863Z,14.48
2022-10-15T21:16:13.576Z,14.42
2022-10-15T21:18:40.716Z,14.25
2022-10-15T21:21:10.472Z,14.51
2022-10-15T21:23:39.192Z,14.50
2022-10-15T21:26:07.276Z,14.50
2022-10-15T21:28:35.489Z,14.47
2022-10-15T21:31:10.263Z,14.47
2022-10-15T21:33:37.817Z,14.47
2022-10-15T21:36:15.747Z,14.29
2022-10-15T21:38:42.992Z,14.40
2022-10-15T21:41:10.632Z,14.19
2022-10-15T21:43:38.393Z,14.02
2022-10-15T21:46:11.953Z,14.47
2022-10-15T21:48:41.041Z,14.44
2022-10-15T21:51:14.771Z,14.45
2022-10-15T21:53:43.132Z,14.47
2022-10-15T21:56:11.481Z,14.46
2022-10-15T21:58:40.161Z,14.48
2022-10-15T22:01:25.219Z,14.45
2022-10-15T22:03:57.862Z,14.45
2022-10-15T22:06:26.704Z,14.45
2022-10-15T22:08:54.808Z,14.44
2022-10-15T22:14:02.140Z,14.45
2022-10-15T22:16:30.094Z,14.32
2022-10-15T22:18:57.701Z,14.43
2022-10-15T22:21:29.736Z,14.44
2022-10-15T22:24:06.724Z,14.43
2022-10-15T22:26:36.775Z,14.43
2022-10-15T22:29:06.561Z,14.42
2022-10-15T22:31:34.673Z,14.39
2022-10-15T22:34:02.598Z,14.41
2022-10-15T22:36:31.312Z,14.36
2022-10-15T22:39:05.619Z,14.36
2022-10-15T22:41:40.154Z,14.28
2022-10-15T22:44:08.923Z,14.10
2022-10-15T22:46:38.845Z,14.24
2022-10-15T22:49:08.157Z,14.18
2022-10-15T22:51:35.876Z,14.14
2022-10-15T22:54:02.992Z,14.07
2022-10-15T22:56:30.652Z,13.97
2022-10-15T22:58:58.896Z,14.05
2022-10-15T23:01:28.413Z,14.02
2022-10-15T23:04:01.841Z,13.99
2022-10-15T23:06:30.337Z,13.92
2022-10-15T23:08:58.263Z,13.91
2022-10-15T23:11:34.613Z,13.82
2022-10-15T23:14:11.605Z,13.85
2022-10-15T23:16:41.938Z,13.81
2022-10-15T23:19:16.648Z,13.57
2022-10-15T23:22:02.892Z,13.75
2022-10-15T23:24:30.203Z,13.63
2022-10-15T23:26:57.532Z,13.67
2022-10-15T23:29:26.285Z,13.45
2022-10-15T23:31:54.905Z,13.65
2022-10-15T23:34:24.874Z,13.62
2022-10-15T23:36:53.057Z,13.60
2022-10-15T23:39:23.808Z,13.56
2022-10-15T23:41:51.159Z,13.34
2022-10-15T23:44:18.742Z,13.30
2022-10-15T23:46:46.623Z,13.49
2022-10-15T23:49:14.285Z,13.29
2022-10-15T23:51:41.611Z,13.39
2022-10-15T23:54:18.055Z,13.35
2022-10-15T23:56:47.097Z,13.47
2022-10-15T23:59:15.153Z,13.49
